CheckWX is a tool to help pilots better visualize weather data.  It is not intended as a substitute for an official pre-flight weather briefing.

20:55:42 UTC

KFNL METAR
Fort Collins-Loveland Municipal Airport
Fort Collins/Loveland, Colorado, USA
Current

60 mins ago

KFNL 181956Z AUTO 19005KT 9SM -SN OVC019 M10/M14 A3009 RMK AO2 SLP252 P0000 T11001139 FZRANO
Observed
Feb-18 @ 19:56 UTC
Wind
  • 190° at 5 KTS
Visibility
9 SM
Flight Rules
MVFR
Conditions
Light Snow
Cloud Levels
  • Overcast at 1,900' AGL
Temperature
-10°C / 14°F
Dewpoint
-14°C / 7°F
Humidity
73%
Altimeter
30.09" Hg
Pressure
1025.2 hPa
Current Rain
0.01"
Previous

2 hours ago

KFNL 181856Z AUTO 13006KT 7SM -SN OVC017 M11/M14 A3013 RMK AO2 SNB06 SLP266 P0000 T11111144 FZRANO
Observed
Feb-18 @ 18:56 UTC
Wind
  • 130° at 6 KTS
Visibility
7 SM
Flight Rules
MVFR
Conditions
Light Snow
Cloud Levels
  • Overcast at 1,700' AGL
Temperature
-11°C / 12°F
Dewpoint
-14°C / 7°F
Humidity
79%
Altimeter
30.13" Hg
Pressure
1026.6 hPa
Current Rain
0.01"
Previous

3 hours ago

KFNL 181820Z AUTO 12010KT 5SM -SN BKN017 OVC045 M11/M14 A3015 RMK AO2 SNB06 P0000 FZRANO
Observed
Feb-18 @ 18:20 UTC
Wind
  • 120° at 10 KTS
Visibility
5 SM
Flight Rules
MVFR
Conditions
Light Snow
Cloud Levels
  • Broken at 1,700' AGL
  • Overcast at 4,500' AGL
Temperature
-11°C / 12°F
Dewpoint
-14°C / 7°F
Humidity
79%
Altimeter
30.15" Hg
Pressure
1021.02 hPa
Current Rain
0.01"